Terminal Aerodrome Forecast
Issued by NWS Austin/San Antonio, TX

Home | Current Version | Previous Version | Text Only | Print | Product List | Glossary On
Versions: 1 2 3 4 5 6 7 8 9 10 11 12 13 14 15 16 17 18 19 20 21 22 23 24 25 26 27 28 29 30 31 32 33 34
000
FTUS44 KEWX 161728
TAFAUS
TAF
KAUS 161728Z 1618/1724 34005KT P6SM VCSH OVC019
     FM170200 02004KT P6SM OVC020
     FM170500 02006KT 5SM BR VCSH OVC010
     FM170900 01010KT 6SM BR VCSH OVC008
     FM171300 01013KT 6SM BR VCSH OVC010=

USA.gov is the U.S. government's official web portal to all federal, state and local government web resources and services.